Alpena, MI

11:08 AM EDT on March 28, 2015 (GMT -0400)
Alpena County Regional | | Change Station
CLOSE
Current Station
Airport
Location: Alpena,
Elevation: 689 ft
Nearby Weather Stations

Elev 689 ft 45.07 °N, 83.56 °W | Updated 14 minutes ago

Clear
Clear
25 °F
Feels Like 18 °F
N
6
Wind Variable Wind from NNW

Today
High -- | Low -- °F
--% Chance of Precip.
Yesterday
High -- | Low -- °F
Precip. -- in
7:22 AM 7:56 PM
Waxing Gibbous, 63% visible
Pressure 30.35 in
Visibility 10.0 miles
Clouds Clear
Windchill 18 °F
Dew Point 9 °F
Humidity 51%
Rainfall 0.00 in
Snow Depth Not available.
UV 4 out of 12
Pollen 1.20 out of 12
Air Quality Not available.
Flu Activity Not available.
METAR KAPN 281454Z AUTO 34005KT 10SM CLR M04/M13 A3031 RMK AO2 SLP276 T10391128 51012

More Conditions Fewer Conditions

Pressure 30.35 in
Visibility 10.0 miles
Clouds Clear
Windchill 18 °F
Dew Point 9 °F
Humidity 51%
Rainfall 0.00 in
Snow Depth Not available.
UV 4 out of 12
Pollen 1.20 out of 12
Air Quality Not available.
Flu Activity Not available.
METAR KAPN 281454Z AUTO 34005KT 10SM CLR M04/M13 A3031 RMK AO2 SLP276 T10391128 51012

More Conditions Fewer Conditions

Nowcast | as of 11:00 am EDT on March 28, 2015

At 12 PM...clear. Temperature 24. Northwest winds 7 mph. At 2 PM...clear. Temperature 29. Northwest winds 8 mph. At 4 PM...clear. Temperature 31. Northwest winds 8 mph. At 6 PM...clear. Temperature 30. Northwest winds 7 mph.

×

10-Day Weather Forecast

Almanac

Astronomy

Mar. 28, 2015 Rise Set
Actual Time
Civil Twilight
Nautical Twilight
Astronomical Twilight
Moon
Length of Visible Light
Length of Day
Tomorrow will be .
, % of the Moon is Illuminated

Today's Extremes

State Highs State Lows

Community

WunderPhotos

Upload Photos

1,809,008 photos uploaded!

WunderBlogs® & News

Nearby

Air Quality

  Air Quality AQ Index Pollutant
Not available.

Snow Depth

Station Depth Elevation

Earthquake Activity

City Distance Mag. Time & Date
Minimum magnitude displayed is 2.5.

Coastal Water Temperatures

Place Temperature

Stations

Nearby Weather Stations

Station Location Temp. Windchill Dew Point Humidity Wind Precip. Elev Updated Type